Lenora, Kansas
Current Conditions -  °F | °C
As of 3:53 AM on Thursday 27 Nov 2014 (Local Time) from KHLC Reporting Station
Clear Clear  
Wind Chill: -9°   Ceiling: Unl
Heat Index: -6°   Visibility: 10mi
Dew Point: -9°   Wind: 5mph
Humidity: 75%   Direction: 90°E
Pressure: 30.42"   Gusts: NA
Location:  39.61°N, 100°W
Report Text: KHLC 270953Z AUTO 09004KT 10SM CLR M06/M09 A3042 RMK AO2 SLP326 T10561094
Loading
Personal Weather Stations






























Interactive Weather Map New forecast layout! Learn more

10-Day Weather Forecast

Advertisements
Track Severe Weather on mobile